Time;durP1;ratioP1;P1;durP2;ratioP2;P2;SDS_P1;SDS_P2;PMS_P1;PMS_P2;Temp;Humidity;BMP_temperature;BMP_pressure;BME280_temperature;BME280_humidity;BME280_pressure;Samples;Min_cycle;Max_cycle;Signal;HPM_P1;HPM_P2
2023/01/23 00:01:32;;;;;;;;;;;;;;;2.26;100.00;98853.66;4527438;31;19972;-81
2023/01/23 00:03:59;;;;;;;;;;;;;;;2.17;100.00;98851.94;4528801;31;19998;-82
2023/01/23 00:06:26;;;;;;;;;;;;;;;2.16;100.00;98852.78;4528497;31;19947;-81
2023/01/23 00:08:55;;;;;;;;;;;;;;;2.00;100.00;98846.75;4526553;31;19947;-81
2023/01/23 00:11:23;;;;;;;;;;;;;;;2.09;100.00;98848.50;4526134;31;19967;-81
2023/01/23 00:13:49;;;;;;;;;;;;;;;2.15;100.00;98845.13;4523552;31;20328;-81
2023/01/23 00:16:17;;;;;;;;;;;;;;;2.16;100.00;98844.28;4522166;31;20369;-81
2023/01/23 00:18:44;;;;;;;;;;;;;;;1.99;100.00;98849.28;4521806;31;20055;-81
2023/01/23 00:21:15;;;;;;;;;;;;;;;2.00;100.00;98851.84;4520481;31;19971;-81
2023/01/23 00:23:42;;;;;;;;;;;;;;;1.91;100.00;98845.88;4519714;31;19971;-81
2023/01/23 00:26:10;;;;;;;;;;;;;;;1.78;100.00;98854.28;4505331;31;19971;-81
2023/01/23 00:28:37;;;;;;;;;;;;;;;1.94;100.00;98853.53;4519650;31;19979;-81
2023/01/23 00:31:08;;;;;;;;;;;;;;;2.02;100.00;98865.44;4518990;31;19975;-81
2023/01/23 00:33:35;;;;;;;;;;;;;;;1.92;100.00;98860.31;4519402;31;20663;-81
2023/01/23 00:36:02;;;;;;;;;;;;;;;1.83;100.00;98866.19;4519048;31;19971;-81
2023/01/23 00:38:28;;;;;;;;;;;;;;;1.87;100.00;98851.78;4519185;31;19959;-81
2023/01/23 00:40:55;;;;;;;;;;;;;;;1.89;100.00;98847.56;4519118;31;19972;-81
2023/01/23 00:43:23;;;;;;;;;;;;;;;1.81;100.00;98849.19;4518904;31;19979;-81
2023/01/23 00:45:50;;;;;;;;;;;;;;;1.86;100.00;98850.09;4519231;31;20018;-81
2023/01/23 00:48:16;;;;;;;;;;;;;;;1.65;100.00;98836.41;4519189;31;19963;-81
2023/01/23 00:50:43;;;;;;;;;;;;;;;1.70;100.00;98842.41;4518706;31;20020;-81
2023/01/23 00:53:11;;;;;;;;;;;;;;;1.60;100.00;98838.09;4519019;31;19979;-81
2023/01/23 00:55:38;;;;;;;;;;;;;;;1.63;100.00;98835.56;4518862;31;19967;-81
2023/01/23 00:58:05;;;;;;;;;;;;;;;1.75;100.00;98839.88;4518660;31;20043;-81
2023/01/23 01:00:32;;;;;;;;;;;;;;;1.73;100.00;98839.00;4504641;31;19978;-81
2023/01/23 01:02:58;;;;;;;;;;;;;;;1.78;100.00;98834.78;4518825;31;20257;-81
2023/01/23 01:05:26;;;;;;;;;;;;;;;1.90;100.00;98832.28;4518600;31;20027;-81
2023/01/23 01:07:52;;;;;;;;;;;;;;;2.01;100.00;98833.19;4518917;31;20015;-81
2023/01/23 01:10:19;;;;;;;;;;;;;;;2.05;100.00;98833.22;4518879;31;19989;-81
2023/01/23 01:12:46;;;;;;;;;;;;;;;2.00;100.00;98823.84;4518341;31;20385;-81
2023/01/23 01:15:13;;;;;;;;;;;;;;;2.07;100.00;98804.37;4518836;31;19986;-81
2023/01/23 01:17:40;;;;;;;;;;;;;;;1.92;100.00;98817.06;4519299;31;19979;-81
2023/01/23 01:20:07;;;;;;;;;;;;;;;1.98;100.00;98817.91;4520463;31;19963;-81
2023/01/23 01:22:34;;;;;;;;;;;;;;;1.87;100.00;98814.47;4520731;31;20352;-81
2023/01/23 01:25:00;;;;;;;;;;;;;;;1.86;100.00;98810.22;4520520;31;19971;-81
2023/01/23 01:27:27;;;;;;;;;;;;;;;2.00;100.00;98812.81;4520810;31;20022;-80
2023/01/23 01:29:54;;;;;;;;;;;;;;;1.90;100.00;98806.84;4520734;31;19971;-80
2023/01/23 01:32:21;;;;;;;;;;;;;;;2.13;100.00;98799.31;4520433;31;19979;-80
2023/01/23 01:34:47;;;;;;;;;;;;;;;1.95;100.00;98807.72;4520751;31;20012;-80
2023/01/23 01:37:14;;;;;;;;;;;;;;;1.87;100.00;98806.00;4520615;31;19962;-80
2023/01/23 01:39:41;;;;;;;;;;;;;;;2.05;100.00;98811.16;4520199;31;19971;-80
2023/01/23 01:42:08;;;;;;;;;;;;;;;1.98;100.00;98814.50;4520730;31;19983;-80
2023/01/23 01:45:07;;;;;;;;;;;;;;;1.90;100.00;98814.47;4506240;31;20450;-80
2023/01/23 01:47:34;;;;;;;;;;;;;;;2.21;100.00;98812.87;4484833;31;20249;-80
2023/01/23 01:50:02;;;;;;;;;;;;;;;2.02;100.00;98806.91;4520495;31;20075;-80
2023/01/23 01:52:28;;;;;;;;;;;;;;;2.06;100.00;98794.19;4520534;31;19983;-80
2023/01/23 01:54:57;;;;;;;;;;;;;;;2.07;100.00;98790.78;4506032;31;19985;-80
2023/01/23 01:57:25;;;;;;;;;;;;;;;1.98;100.00;98799.25;4520252;31;20363;-80
2023/01/23 01:59:53;;;;;;;;;;;;;;;2.01;100.00;98786.50;4520547;31;19975;-80
2023/01/23 02:02:24;;;;;;;;;;;;;;;2.01;100.00;98792.44;4520159;31;19971;-80
2023/01/23 02:04:51;;;;;;;;;;;;;;;2.07;100.00;98795.88;4506257;31;20343;-80
2023/01/23 02:07:38;;;;;;;;;;;;;;;2.00;100.00;98787.38;4505904;31;20542;-80
2023/01/23 02:10:05;;;;;;;;;;;;;;;2.11;100.00;98792.50;4520480;31;19979;-80
2023/01/23 02:12:33;;;;;;;;;;;;;;;2.01;100.00;98786.50;4520498;31;19983;-80
2023/01/23 02:15:01;;;;;;;;;;;;;;;2.14;100.00;98806.09;4520101;31;19971;-80
2023/01/23 02:17:29;;;;;;;;;;;;;;;2.03;100.00;98797.56;4520378;31;20006;-80
2023/01/23 02:20:12;;;;;;;;;;;;;;;2.13;100.00;98793.38;4506040;31;20373;-80
2023/01/23 02:22:44;;;;;;;;;;;;;;;2.03;100.00;98788.25;4519994;31;19987;-80
2023/01/23 02:25:28;;;;;;;;;;;;;;;2.20;100.00;98784.88;4506135;31;19967;-80
2023/01/23 02:27:55;;;;;;;;;;;;;;;2.06;100.00;98789.09;4519921;31;20019;-79
2023/01/23 02:30:22;;;;;;;;;;;;;;;2.12;100.00;98792.50;4519887;31;20308;-79
2023/01/23 02:32:48;;;;;;;;;;;;;;;2.32;100.00;98792.53;4520206;31;20306;-79
2023/01/23 02:35:33;;;;;;;;;;;;;;;2.19;100.00;98793.38;4519945;31;20313;-79
2023/01/23 02:38:01;;;;;;;;;;;;;;;2.09;100.00;98786.53;4520230;31;19982;-79
2023/01/23 02:40:35;;;;;;;;;;;;;;;2.27;100.00;98789.16;4505947;31;20324;-79
2023/01/23 02:43:02;;;;;;;;;;;;;;;2.14;100.00;98772.16;4519823;31;19993;-79
2023/01/23 02:45:30;;;;;;;;;;;;;;;2.12;100.00;98774.66;4505952;31;19985;-79
2023/01/23 02:47:56;;;;;;;;;;;;;;;2.11;100.00;98779.75;4520157;31;19963;-79
2023/01/23 02:50:23;;;;;;;;;;;;;;;1.99;100.00;98783.97;4519720;31;19971;-79
2023/01/23 02:52:53;;;;;;;;;;;;;;;2.08;100.00;98775.53;4520096;31;20262;-79
2023/01/23 02:55:20;;;;;;;;;;;;;;;2.16;100.00;98778.09;4520116;31;19986;-79
2023/01/23 02:57:47;;;;;;;;;;;;;;;2.16;100.00;98780.63;4519582;31;20249;-79
2023/01/23 03:00:18;;;;;;;;;;;;;;;2.24;100.00;98750.97;4519988;31;20282;-80
2023/01/23 03:02:47;;;;;;;;;;;;;;;2.39;100.00;98770.50;4520017;31;19987;-79
2023/01/23 03:05:14;;;;;;;;;;;;;;;2.22;100.00;98768.75;4519754;31;20022;-79
2023/01/23 03:07:41;;;;;;;;;;;;;;;2.26;100.00;98769.62;4520060;31;20505;-79
2023/01/23 03:10:08;;;;;;;;;;;;;;;2.13;100.00;98765.38;4519923;31;19987;-79
2023/01/23 03:12:38;;;;;;;;;;;;;;;2.30;100.00;98782.34;4520229;31;20046;-79
2023/01/23 03:15:05;;;;;;;;;;;;;;;2.20;100.00;98782.34;4519972;31;20432;-79
2023/01/23 03:17:32;;;;;;;;;;;;;;;2.15;100.00;98779.78;4519652;31;19963;-79
2023/01/23 03:20:00;;;;;;;;;;;;;;;2.14;100.00;98773.00;4519888;31;19971;-79
2023/01/23 03:22:26;;;;;;;;;;;;;;;2.18;100.00;98771.31;4519919;31;19998;-79
2023/01/23 03:24:54;;;;;;;;;;;;;;;2.20;100.00;98779.78;4519522;31;19963;-79
2023/01/23 03:27:21;;;;;;;;;;;;;;;2.22;100.00;98752.63;4519969;31;19981;-79
2023/01/23 03:32:33;;;;;;;;;;;;;;;2.18;100.00;98774.69;4507409;31;19987;-79
2023/01/23 03:35:00;;;;;;;;;;;;;;;2.24;100.00;98771.31;4519886;31;19971;-79
2023/01/23 03:37:27;;;;;;;;;;;;;;;2.35;100.00;98779.84;4505507;31;20237;-79
2023/01/23 03:42:39;;;;;;;;;;;;;;;2.42;100.00;98791.72;4519773;31;19991;-79
2023/01/23 03:45:06;;;;;;;;;;;;;;;2.43;100.00;98795.09;4519833;31;20485;-79
2023/01/23 03:47:33;;;;;;;;;;;;;;;2.48;100.00;98793.44;4519538;31;20012;-79
2023/01/23 03:49:59;;;;;;;;;;;;;;;2.66;100.00;98795.13;4519653;31;20028;-79
2023/01/23 03:52:26;;;;;;;;;;;;;;;2.95;100.00;98800.25;4519496;31;20031;-79
2023/01/23 03:54:53;;;;;;;;;;;;;;;2.56;100.00;98794.31;4519757;31;19968;-79
2023/01/23 03:57:19;;;;;;;;;;;;;;;2.54;100.00;98794.28;4519569;31;19967;-79
2023/01/23 03:59:46;;;;;;;;;;;;;;;2.37;100.00;98783.22;4519252;31;20411;-79
2023/01/23 04:02:13;;;;;;;;;;;;;;;2.42;100.00;98781.53;4519751;31;19993;-79
2023/01/23 04:04:40;;;;;;;;;;;;;;;2.44;100.00;98784.91;4519631;31;19985;-79
2023/01/23 04:07:07;;;;;;;;;;;;;;;2.34;100.00;98780.69;4519261;31;19967;-79
2023/01/23 04:09:34;;;;;;;;;;;;;;;2.42;100.00;98784.06;4519600;31;19971;-79
2023/01/23 04:12:01;;;;;;;;;;;;;;;2.24;100.00;98779.81;4519547;31;19983;-79
2023/01/23 04:14:36;;;;;;;;;;;;;;;2.25;100.00;98767.94;4504804;31;20623;-79
2023/01/23 04:17:03;;;;;;;;;;;;;;;2.23;100.00;98775.56;4519694;31;19959;-79
2023/01/23 04:19:30;;;;;;;;;;;;;;;2.13;100.00;98773.00;4519555;31;20274;-79
2023/01/23 04:21:57;;;;;;;;;;;;;;;2.40;100.00;98773.03;4519142;31;19974;-79
2023/01/23 04:24:23;;;;;;;;;;;;;;;2.36;100.00;98767.94;4519543;31;19983;-79
2023/01/23 04:26:50;;;;;;;;;;;;;;;2.30;100.00;98772.16;4519468;31;19963;-79
2023/01/23 04:29:17;;;;;;;;;;;;;;;2.42;100.00;98771.34;4519013;31;19972;-79
2023/01/23 04:31:44;;;;;;;;;;;;;;;2.41;100.00;98766.25;4519213;31;19983;-79
2023/01/23 04:34:10;;;;;;;;;;;;;;;2.50;100.00;98774.75;4519379;31;20429;-79
2023/01/23 04:36:37;;;;;;;;;;;;;;;2.50;100.00;98771.34;4518999;31;20332;-79
2023/01/23 04:39:04;;;;;;;;;;;;;;;2.58;100.00;98772.22;4519316;31;19975;-79
2023/01/23 04:41:31;;;;;;;;;;;;;;;2.52;100.00;98769.66;4518871;31;20348;-79
2023/01/23 04:44:18;;;;;;;;;;;;;;;2.51;100.00;98768.81;4519243;31;19971;-79
2023/01/23 04:46:46;;;;;;;;;;;;;;;2.40;100.00;98762.00;4519265;31;20350;-79
2023/01/23 04:49:13;;;;;;;;;;;;;;;2.48;100.00;98760.31;4518880;31;19994;-79
2023/01/23 04:51:39;;;;;;;;;;;;;;;2.46;100.00;98757.78;4518703;31;19976;-80
2023/01/23 04:54:06;;;;;;;;;;;;;;;2.42;100.00;98755.22;4519149;31;20006;-79
2023/01/23 04:56:33;;;;;;;;;;;;;;;2.43;100.00;98757.75;4518272;31;20320;-80
2023/01/23 04:58:59;;;;;;;;;;;;;;;2.53;100.00;98756.06;4518930;31;19971;-80
2023/01/23 05:01:26;;;;;;;;;;;;;;;2.37;100.00;98762.84;4518849;31;19980;-80
2023/01/23 05:03:53;;;;;;;;;;;;;;;2.60;100.00;98770.50;4504308;31;19981;-80
2023/01/23 05:06:19;;;;;;;;;;;;;;;2.52;100.00;98760.31;4519003;31;20002;-80
2023/01/23 05:08:46;;;;;;;;;;;;;;;2.53;100.00;98764.56;4519019;31;19975;-80
2023/01/23 05:11:13;;;;;;;;;;;;;;;2.62;100.00;98767.09;4518425;31;19975;-80
2023/01/23 05:13:40;;;;;;;;;;;;;;;2.76;100.00;98764.56;4518868;31;20022;-80
2023/01/23 05:16:06;;;;;;;;;;;;;;;2.62;100.00;98768.81;4518800;31;20316;-80
2023/01/23 05:18:33;;;;;;;;;;;;;;;3.19;100.00;98777.28;4518364;31;19967;-80
2023/01/23 05:21:00;;;;;;;;;;;;;;;3.41;100.00;98773.00;4518591;31;19978;-80
2023/01/23 05:23:26;;;;;;;;;;;;;;;2.95;100.00;98773.03;4518711;31;20444;-80
2023/01/23 05:25:53;;;;;;;;;;;;;;;3.01;100.00;98780.72;4518573;31;19971;-80
2023/01/23 05:28:20;;;;;;;;;;;;;;;2.76;100.00;98790.03;4504394;31;19990;-80
2023/01/23 05:30:47;;;;;;;;;;;;;;;3.05;100.00;98795.13;4518135;31;19975;-80
2023/01/23 05:33:13;;;;;;;;;;;;;;;2.93;100.00;98779.84;4518528;31;19967;-80
2023/01/23 05:35:40;;;;;;;;;;;;;;;2.97;100.00;98785.78;4518633;31;20298;-80
2023/01/23 05:38:07;;;;;;;;;;;;;;;3.07;100.00;98780.69;4518100;31;20016;-80
2023/01/23 05:40:33;;;;;;;;;;;;;;;3.06;100.00;98788.34;4518332;31;19967;-80
2023/01/23 05:43:00;;;;;;;;;;;;;;;3.24;100.00;98785.78;4518370;31;20030;-80
2023/01/23 05:45:27;;;;;;;;;;;;;;;3.16;100.00;98790.03;4518036;31;19967;-81
2023/01/23 05:47:54;;;;;;;;;;;;;;;3.24;100.00;98783.22;4518363;31;19971;-80
2023/01/23 05:50:23;;;;;;;;;;;;;;;3.10;100.00;98788.34;4504056;31;20050;-81
2023/01/23 05:52:50;;;;;;;;;;;;;;;3.17;100.00;98786.63;4517851;31;20329;-81
2023/01/23 05:55:16;;;;;;;;;;;;;;;3.22;100.00;98786.63;4518175;31;20253;-81
2023/01/23 05:57:43;;;;;;;;;;;;;;;3.20;100.00;98786.63;4517987;31;19994;-81
2023/01/23 06:00:11;;;;;;;;;;;;;;;3.17;100.00;98784.91;4517710;31;20421;-81
2023/01/23 06:02:37;;;;;;;;;;;;;;;3.11;100.00;98782.41;4503796;31;19979;-81
2023/01/23 06:05:04;;;;;;;;;;;;;;;3.14;100.00;98782.37;4520171;31;19977;-81
2023/01/23 06:07:31;;;;;;;;;;;;;;;3.11;100.00;98779.00;4520020;31;20015;-81
2023/01/23 06:09:58;;;;;;;;;;;;;;;3.19;100.00;98796.00;4520377;31;20365;-81
2023/01/23 06:12:24;;;;;;;;;;;;;;;3.10;100.00;98783.25;4520408;31;19982;-81
2023/01/23 06:14:51;;;;;;;;;;;;;;;3.19;100.00;98790.03;4519948;31;20027;-81
2023/01/23 06:17:18;;;;;;;;;;;;;;;3.09;100.00;98785.81;4520437;31;20027;-81
2023/01/23 06:19:44;;;;;;;;;;;;;;;3.03;100.00;98781.53;4519877;31;20028;-80
2023/01/23 06:22:11;;;;;;;;;;;;;;;3.21;100.00;98790.03;4520414;31;20321;-80
2023/01/23 06:24:38;;;;;;;;;;;;;;;3.20;100.00;98786.63;4520158;31;19971;-81
2023/01/23 06:27:07;;;;;;;;;;;;;;;3.18;100.00;98780.66;4520244;31;19975;-81
2023/01/23 06:29:34;;;;;;;;;;;;;;;2.98;100.00;98777.28;4520178;31;20035;-81
2023/01/23 06:32:01;;;;;;;;;;;;;;;3.01;100.00;98796.00;4520354;31;19979;-79
2023/01/23 06:34:27;;;;;;;;;;;;;;;3.26;100.00;98801.06;4519703;31;20301;-79
2023/01/23 06:36:54;;;;;;;;;;;;;;;3.26;100.00;98803.63;4520094;31;19972;-80
2023/01/23 06:39:21;;;;;;;;;;;;;;;3.37;100.00;98812.09;4519881;31;19975;-80
2023/01/23 06:41:47;;;;;;;;;;;;;;;3.23;100.00;98798.53;4519638;31;20019;-79
2023/01/23 06:44:14;;;;;;;;;;;;;;;3.11;100.00;98804.50;4505672;31;19986;-80
2023/01/23 06:46:41;;;;;;;;;;;;;;;3.19;100.00;98806.19;4519989;31;20306;-80
2023/01/23 06:49:08;;;;;;;;;;;;;;;3.21;100.00;98816.38;4519529;31;19994;-80
2023/01/23 06:51:35;;;;;;;;;;;;;;;3.20;100.00;98819.78;4505417;31;19967;-80
2023/01/23 06:54:02;;;;;;;;;;;;;;;3.36;100.00;98821.44;4519900;31;20253;-80
2023/01/23 06:56:29;;;;;;;;;;;;;;;3.31;100.00;98827.44;4519260;31;19976;-80
2023/01/23 06:58:55;;;;;;;;;;;;;;;3.41;100.00;98835.06;4519510;31;19987;-80
2023/01/23 07:01:22;;;;;;;;;;;;;;;3.31;100.00;98842.72;4519206;31;20306;-80
2023/01/23 07:03:49;;;;;;;;;;;;;;;3.08;100.00;98829.97;4519354;31;20328;-80
2023/01/23 07:06:16;;;;;;;;;;;;;;;3.41;100.00;98829.13;4523493;31;19976;-83
2023/01/23 07:08:43;;;;;;;;;;;;;;;3.46;100.00;98825.69;4523922;31;19994;-83
2023/01/23 07:11:10;;;;;;;;;;;;;;;3.37;100.00;98830.81;4520657;31;19982;-84
2023/01/23 07:13:37;;;;;;;;;;;;;;;3.50;100.00;98818.88;4520825;31;19982;-80
2023/01/23 07:16:04;;;;;;;;;;;;;;;3.40;100.00;98818.06;4506377;31;20102;-80
2023/01/23 07:18:32;;;;;;;;;;;;;;;3.53;100.00;98826.53;4524180;31;19979;-79
2023/01/23 07:20:59;;;;;;;;;;;;;;;3.48;100.00;98818.88;4519431;31;19979;-79
2023/01/23 07:23:26;;;;;;;;;;;;;;;3.62;100.00;98836.72;4519368;31;19990;-79
2023/01/23 07:25:57;;;;;;;;;;;;;;;3.89;100.00;98838.34;4519658;31;20332;-79
2023/01/23 07:28:24;;;;;;;;;;;;;;;3.87;100.00;98847.72;4519767;31;20348;-79
2023/01/23 07:30:50;;;;;;;;;;;;;;;3.82;100.00;98838.34;4519390;31;19971;-85
2023/01/23 07:33:17;;;;;;;;;;;;;;;3.92;100.00;98837.47;4505119;31;20334;-89
2023/01/23 07:35:44;;;;;;;;;;;;;;;4.45;100.00;98833.81;4519881;31;20031;-89
2023/01/23 07:38:11;;;;;;;;;;;;;;;4.72;100.00;98840.47;4519235;31;20001;-84
2023/01/23 07:40:40;;;;;;;;;;;;;;;4.69;100.00;98843.91;4518841;31;20381;-84
2023/01/23 07:43:06;;;;;;;;;;;;;;;4.57;100.00;98851.63;4519560;31;19972;-81
2023/01/23 07:45:33;;;;;;;;;;;;;;;4.26;100.00;98846.72;4519554;31;19985;-81
2023/01/23 07:48:00;;;;;;;;;;;;;;;4.04;100.00;98852.72;4519665;31;19975;-81
2023/01/23 07:50:26;;;;;;;;;;;;;;;3.76;100.00;98854.56;4519476;31;20013;-81
2023/01/23 07:52:53;;;;;;;;;;;;;;;3.63;100.00;98847.78;4518709;31;20423;-81
2023/01/23 07:55:22;;;;;;;;;;;;;;;3.75;100.00;98863.06;4519650;31;20006;-81
2023/01/23 07:57:49;;;;;;;;;;;;;;;3.61;100.00;98862.22;4519351;31;19971;-80
2023/01/23 08:00:15;;;;;;;;;;;;;;;3.60;100.00;98856.28;4519006;31;20039;-82
2023/01/23 08:02:42;;;;;;;;;;;;;;;3.69;100.00;98865.63;4519468;31;19994;-81
2023/01/23 08:05:09;;;;;;;;;;;;;;;3.68;100.00;98876.69;4519142;31;19971;-81
2023/01/23 08:07:36;;;;;;;;;;;;;;;3.74;100.00;98884.34;4519463;31;19975;-81
2023/01/23 08:10:03;;;;;;;;;;;;;;;3.85;100.00;98889.41;4519228;31;19971;-81
2023/01/23 08:12:29;;;;;;;;;;;;;;;3.93;100.00;98887.66;4518885;31;20022;-81
2023/01/23 08:14:56;;;;;;;;;;;;;;;4.20;100.00;98891.84;4519403;31;19975;-83
2023/01/23 08:17:23;;;;;;;;;;;;;;;4.04;100.00;98888.50;4519453;31;20026;-82
2023/01/23 08:19:49;;;;;;;;;;;;;;;4.22;100.00;98885.88;4518949;31;20024;-81
2023/01/23 08:22:16;;;;;;;;;;;;;;;3.95;100.00;98883.44;4519191;31;20282;-83
2023/01/23 08:24:43;;;;;;;;;;;;;;;4.10;100.00;98880.81;4519866;31;19976;-82
2023/01/23 08:27:09;;;;;;;;;;;;;;;4.31;100.00;98890.09;4518435;31;20118;-82
2023/01/23 08:29:38;;;;;;;;;;;;;;;4.45;100.00;98890.03;4519406;31;19980;-81
2023/01/23 08:32:05;;;;;;;;;;;;;;;4.45;100.00;98885.78;4519049;31;19959;-81
2023/01/23 08:34:32;;;;;;;;;;;;;;;4.46;100.00;98887.47;4518903;31;20317;-83
2023/01/23 08:36:59;;;;;;;;;;;;;;;4.42;100.00;98884.94;4519029;31;19975;-82
2023/01/23 08:39:25;;;;;;;;;;;;;;;4.59;100.00;98896.78;4519000;31;20030;-81
2023/01/23 08:41:52;;;;;;;;;;;;;;;4.76;100.00;98901.78;4518574;31;20305;-82
2023/01/23 08:44:19;;;;;;;;;;;;;;;4.61;100.00;98902.75;4519057;31;20035;-82
2023/01/23 08:46:45;;;;;;;;;;;;;;;4.49;100.00;98895.13;4519351;31;20027;-82
2023/01/23 08:49:12;;;;;;;;;;;;;;;4.41;100.00;98903.69;4519922;31;20020;-82
2023/01/23 08:51:39;;;;;;;;;;;;;;;4.47;100.00;98901.97;4588372;26;20713;-84
2023/01/23 08:54:06;;;;;;;;;;;;;;;4.39;100.00;98905.41;4480432;32;19992;-83
2023/01/23 08:56:32;;;;;;;;;;;;;;;4.53;100.00;98909.59;4479890;32;19991;-84
2023/01/23 08:58:59;;;;;;;;;;;;;;;4.63;100.00;98905.28;4477791;32;19952;-85
2023/01/23 09:01:26;;;;;;;;;;;;;;;4.94;100.00;98901.69;4511861;26;19988;-82
2023/01/23 09:03:53;;;;;;;;;;;;;;;4.71;100.00;98906.09;4481549;32;19985;-85
2023/01/23 09:06:20;;;;;;;;;;;;;;;4.80;100.00;98898.38;4483996;32;19996;-87
2023/01/23 09:16:39;;;;;;;;;;;;;;;5.23;100.00;98911.72;4786092;26;19961;-83
2023/01/23 09:21:41;;;;;;;;;;;;;;;5.29;100.00;98908.25;4533101;26;20001;-85
2023/01/23 09:24:08;;;;;;;;;;;;;;;5.58;100.00;98917.41;4449493;32;19990;-84
2023/01/23 09:26:35;;;;;;;;;;;;;;;5.76;100.00;98927.50;4450339;32;20343;-86
2023/01/23 09:29:01;;;;;;;;;;;;;;;5.77;100.00;98924.06;4435493;32;19993;-86
2023/01/23 09:31:28;;;;;;;;;;;;;;;5.52;100.00;98905.50;4448169;32;19965;-86
2023/01/23 09:33:58;;;;;;;;;;;;;;;5.88;100.00;98911.16;4449315;32;19977;-87
2023/01/23 09:36:25;;;;;;;;;;;;;;;5.67;100.00;98912.22;4450963;32;19984;-86
2023/01/23 09:39:08;;;;;;;;;;;;;;;5.77;100.00;98914.66;4454928;32;19964;-86
2023/01/23 09:41:42;;;;;;;;;;;;;;;5.79;100.00;98914.66;4455518;32;19958;-81
2023/01/23 09:44:17;;;;;;;;;;;;;;;5.45;100.00;98904.72;4440851;32;19957;-82
2023/01/23 09:46:52;;;;;;;;;;;;;;;5.22;100.00;98904.06;4486339;26;19953;-85
2023/01/23 09:49:27;;;;;;;;;;;;;;;5.30;100.00;98904.81;4642558;26;19996;-86
2023/01/23 09:52:20;;;;;;;;;;;;;;;4.97;100.00;98889.72;4441912;32;19994;-86
2023/01/23 09:55:08;;;;;;;;;;;;;;;4.76;100.00;98896.69;4447933;32;19988;-87
2023/01/23 09:57:41;;;;;;;;;;;;;;;4.75;100.00;98896.69;4441349;32;20677;-86
2023/01/23 10:00:19;;;;;;;;;;;;;;;4.87;100.00;98897.47;4439205;32;19949;-86
2023/01/23 10:02:46;;;;;;;;;;;;;;;5.19;100.00;98891.28;4455106;32;19965;-86
2023/01/23 10:05:25;;;;;;;;;;;;;;;4.96;100.00;98886.31;4539088;27;20001;-85
2023/01/23 10:08:12;;;;;;;;;;;;;;;4.82;100.00;98895.81;4437291;32;20042;-87
2023/01/23 10:10:43;;;;;;;;;;;;;;;5.02;100.00;98878.63;4438644;32;20029;-86
2023/01/23 10:13:13;;;;;;;;;;;;;;;4.84;100.00;98878.75;4449714;32;19950;-86
2023/01/23 10:16:01;;;;;;;;;;;;;;;4.89;100.00;98882.09;4449814;32;19963;-86
2023/01/23 10:18:42;;;;;;;;;;;;;;;4.90;100.00;98883.84;4449745;32;19984;-87
2023/01/23 10:21:29;;;;;;;;;;;;;;;5.09;100.00;98876.84;4450949;32;19964;-87
2023/01/23 10:23:59;;;;;;;;;;;;;;;5.32;100.00;98872.44;4451765;32;20001;-86
2023/01/23 10:26:33;;;;;;;;;;;;;;;5.19;100.00;98876.75;4438119;32;20625;-86
2023/01/23 10:29:02;;;;;;;;;;;;;;;5.28;100.00;98864.78;4440383;32;20011;-86
2023/01/23 10:32:01;;;;;;;;;;;;;;;5.07;100.00;98868.34;4449366;32;20757;-86
2023/01/23 10:34:36;;;;;;;;;;;;;;;5.56;100.00;98862.81;4431592;32;19949;-87
2023/01/23 10:37:10;;;;;;;;;;;;;;;5.55;100.00;98868.81;4446731;32;20348;-87
2023/01/23 10:39:47;;;;;;;;;;;;;;;5.94;100.00;98873.53;4436038;32;19989;-85
2023/01/23 10:42:14;;;;;;;;;;;;;;;5.88;99.92;98868.47;4436190;32;19953;-85
2023/01/23 10:44:41;;;;;;;;;;;;;;;5.53;100.00;98858.59;4436817;32;19945;-87
2023/01/23 10:47:19;;;;;;;;;;;;;;;5.67;100.00;98856.72;4448009;32;20469;-87
2023/01/23 10:49:46;;;;;;;;;;;;;;;5.41;100.00;98858.66;4439437;32;19968;-82
2023/01/23 10:52:31;;;;;;;;;;;;;;;5.32;100.00;98851.94;4451789;32;19945;-85
2023/01/23 10:54:58;;;;;;;;;;;;;;;5.26;100.00;98858.81;4450316;32;19990;-86
2023/01/23 10:57:25;;;;;;;;;;;;;;;5.47;100.00;98854.34;4453560;32;20058;-83
2023/01/23 11:00:00;;;;;;;;;;;;;;;5.57;100.00;98854.28;4452910;32;19949;-84
2023/01/23 11:02:28;;;;;;;;;;;;;;;5.87;100.00;98841.16;4453074;32;20062;-84
2023/01/23 11:04:55;;;;;;;;;;;;;;;5.36;100.00;98856.16;4453666;32;19945;-83
2023/01/23 11:07:23;;;;;;;;;;;;;;;5.41;100.00;98845.88;4447776;32;19991;-86
2023/01/23 11:10:13;;;;;;;;;;;;;;;5.57;100.00;98846.59;4441455;32;19976;-86
2023/01/23 11:13:05;;;;;;;;;;;;;;;5.45;100.00;98850.97;4431366;32;19984;-87
2023/01/23 11:15:32;;;;;;;;;;;;;;;5.55;100.00;98845.78;4437863;32;19969;-87
2023/01/23 11:18:00;;;;;;;;;;;;;;;5.56;100.00;98837.22;4442418;32;19977;-87
2023/01/23 11:20:37;;;;;;;;;;;;;;;5.67;100.00;98848.19;4442770;32;19991;-87
2023/01/23 11:23:07;;;;;;;;;;;;;;;5.51;100.00;98844.94;4442540;32;19973;-87
2023/01/23 11:25:38;;;;;;;;;;;;;;;5.79;100.00;98846.34;4443073;32;19964;-86
2023/01/23 11:28:19;;;;;;;;;;;;;;;5.77;100.00;98852.34;4442601;32;19977;-87
2023/01/23 11:30:46;;;;;;;;;;;;;;;6.14;100.00;98852.81;4442905;32;19984;-88
2023/01/23 11:33:20;;;;;;;;;;;;;;;6.30;98.43;98845.78;4428706;32;19973;-87
2023/01/23 11:35:59;;;;;;;;;;;;;;;6.21;99.86;98851.03;4435995;32;19997;-87
2023/01/23 11:38:27;;;;;;;;;;;;;;;6.17;99.12;98846.78;4450532;32;19949;-87
2023/01/23 11:40:57;;;;;;;;;;;;;;;6.14;100.00;98851.97;4436176;32;19975;-87
2023/01/23 11:43:24;;;;;;;;;;;;;;;6.49;97.27;98854.09;4450486;32;19999;-86
2023/01/23 11:46:11;;;;;;;;;;;;;;;6.32;99.06;98856.88;4448821;32;19990;-87
2023/01/23 11:48:47;;;;;;;;;;;;;;;6.78;96.90;98859.63;4449252;32;19981;-87
2023/01/23 11:51:26;;;;;;;;;;;;;;;7.24;94.03;98859.78;4448153;32;19991;-87
2023/01/23 11:53:57;;;;;;;;;;;;;;;6.85;94.21;98863.81;4449699;32;19977;-87
2023/01/23 11:56:29;;;;;;;;;;;;;;;6.94;95.20;98863.69;4434587;32;19983;-84
2023/01/23 11:58:59;;;;;;;;;;;;;;;7.51;90.69;98860.19;4435310;32;19999;-87
2023/01/23 12:01:33;;;;;;;;;;;;;;;7.63;89.05;98866.81;4450516;32;19941;-86
2023/01/23 12:04:02;;;;;;;;;;;;;;;7.54;89.79;98855.00;4425593;32;19956;-87
2023/01/23 12:06:48;;;;;;;;;;;;;;;7.18;91.60;98861.59;4450227;32;19984;-88
2023/01/23 12:09:16;;;;;;;;;;;;;;;7.06;93.62;98860.09;4449823;32;19949;-88
2023/01/23 12:11:46;;;;;;;;;;;;;;;6.91;92.84;98861.19;4433279;32;19985;-87
2023/01/23 12:14:25;;;;;;;;;;;;;;;7.27;91.65;98863.19;4446683;32;19949;-88
2023/01/23 12:16:55;;;;;;;;;;;;;;;7.02;92.37;98878.09;4442438;32;20523;-86
2023/01/23 12:19:40;;;;;;;;;;;;;;;6.96;91.84;98866.22;4443369;32;19972;-87
2023/01/23 12:22:24;;;;;;;;;;;;;;;6.82;93.18;98863.03;4446374;32;19980;-87
2023/01/23 12:25:03;;;;;;;;;;;;;;;7.09;93.21;98869.44;4444241;32;19991;-88
2023/01/23 12:27:42;;;;;;;;;;;;;;;7.25;91.65;98878.59;4443604;32;19984;-88
2023/01/23 12:30:09;;;;;;;;;;;;;;;7.14;93.82;98875.38;4443320;32;19985;-88
2023/01/23 12:32:38;;;;;;;;;;;;;;;7.50;91.84;98871.34;4443822;32;19977;-88
2023/01/23 12:35:17;;;;;;;;;;;;;;;7.81;89.49;98869.06;4444706;32;19973;-88
2023/01/23 12:37:45;;;;;;;;;;;;;;;7.59;90.21;98871.19;4444014;32;19968;-88
2023/01/23 12:40:14;;;;;;;;;;;;;;;7.97;89.43;98869.62;4441520;32;20000;-88
2023/01/23 12:43:00;;;;;;;;;;;;;;;8.03;87.93;98877.22;4442255;32;19984;-89
2023/01/23 12:45:27;;;;;;;;;;;;;;;8.09;87.68;98882.25;4441944;32;20029;-89
2023/01/23 12:47:53;;;;;;;;;;;;;;;7.66;89.68;98880.47;4427943;32;19994;-89
2023/01/23 12:50:22;;;;;;;;;;;;;;;8.07;88.53;98884.81;4441496;32;19987;-89
2023/01/23 12:52:54;;;;;;;;;;;;;;;8.48;86.73;98882.34;4426620;32;19988;-88
2023/01/23 12:55:39;;;;;;;;;;;;;;;8.59;86.24;98888.09;4441045;32;19976;-89
2023/01/23 12:58:06;;;;;;;;;;;;;;;7.85;89.16;98878.41;4441051;32;20018;-88
2023/01/23 13:00:54;;;;;;;;;;;;;;;8.19;88.73;98888.91;4440396;32;19995;-89
2023/01/23 13:03:25;;;;;;;;;;;;;;;8.28;88.01;98886.13;4442297;32;19981;-89
2023/01/23 13:06:06;;;;;;;;;;;;;;;8.19;88.67;98881.19;4441517;32;20044;-89
2023/01/23 13:08:35;;;;;;;;;;;;;;;7.31;94.02;98886.19;4442096;32;19953;-88
2023/01/23 13:11:40;;;;;;;;;;;;;;;7.12;95.75;98882.22;4442618;32;19986;-88
2023/01/23 13:14:23;;;;;;;;;;;;;;;6.84;97.50;98877.50;4434548;32;19948;-88
2023/01/23 13:16:57;;;;;;;;;;;;;;;6.78;98.00;98874.19;4434189;32;20028;-86